sensor_id;sensor_type;location;lat;lon;timestamp;P1;durP1;ratioP1;P2;durP2;ratioP2
67554;SDS011;54385;53.516;49.456;2022-12-31T00:00:22;13.85;;;6.65;;
67554;SDS011;54385;53.516;49.456;2022-12-31T00:02:48;9.57;;;6.20;;
67554;SDS011;54385;53.516;49.456;2022-12-31T00:05:17;13.55;;;6.28;;
67554;SDS011;54385;53.516;49.456;2022-12-31T00:07:47;11.13;;;5.93;;
67554;SDS011;54385;53.516;49.456;2022-12-31T00:10:14;9.52;;;5.60;;
67554;SDS011;54385;53.516;49.456;2022-12-31T00:12:40;11.85;;;5.78;;
67554;SDS011;54385;53.516;49.456;2022-12-31T00:15:07;11.70;;;6.50;;
67554;SDS011;54385;53.516;49.456;2022-12-31T00:17:33;13.05;;;6.57;;
67554;SDS011;54385;53.516;49.456;2022-12-31T00:20:00;12.35;;;6.70;;
67554;SDS011;54385;53.516;49.456;2022-12-31T00:22:37;9.65;;;4.70;;
67554;SDS011;54385;53.516;49.456;2022-12-31T00:25:04;13.65;;;6.70;;
67554;SDS011;54385;53.516;49.456;2022-12-31T00:27:34;11.75;;;5.55;;
67554;SDS011;54385;53.516;49.456;2022-12-31T00:30:01;12.00;;;5.93;;
67554;SDS011;54385;53.516;49.456;2022-12-31T00:32:28;11.85;;;6.53;;
67554;SDS011;54385;53.516;49.456;2022-12-31T00:34:54;11.82;;;6.18;;
67554;SDS011;54385;53.516;49.456;2022-12-31T00:37:21;9.27;;;5.25;;
67554;SDS011;54385;53.516;49.456;2022-12-31T00:39:47;12.80;;;6.05;;
67554;SDS011;54385;53.516;49.456;2022-12-31T00:42:18;11.98;;;5.28;;
67554;SDS011;54385;53.516;49.456;2022-12-31T00:44:48;9.80;;;5.57;;
67554;SDS011;54385;53.516;49.456;2022-12-31T00:47:14;9.30;;;5.20;;
67554;SDS011;54385;53.516;49.456;2022-12-31T00:49:41;7.82;;;4.20;;
67554;SDS011;54385;53.516;49.456;2022-12-31T00:52:07;7.55;;;4.60;;
67554;SDS011;54385;53.516;49.456;2022-12-31T00:54:34;12.90;;;5.50;;
67554;SDS011;54385;53.516;49.456;2022-12-31T00:57:00;15.02;;;6.03;;
67554;SDS011;54385;53.516;49.456;2022-12-31T00:59:27;13.27;;;6.20;;
67554;SDS011;54385;53.516;49.456;2022-12-31T01:01:53;9.35;;;4.32;;
67554;SDS011;54385;53.516;49.456;2022-12-31T01:04:19;10.30;;;5.32;;
67554;SDS011;54385;53.516;49.456;2022-12-31T01:06:46;14.35;;;6.00;;
67554;SDS011;54385;53.516;49.456;2022-12-31T01:09:16;12.60;;;5.93;;
67554;SDS011;54385;53.516;49.456;2022-12-31T01:11:43;12.90;;;5.93;;
67554;SDS011;54385;53.516;49.456;2022-12-31T01:14:10;15.05;;;6.03;;
67554;SDS011;54385;53.516;49.456;2022-12-31T01:16:43;11.07;;;5.43;;
67554;SDS011;54385;53.516;49.456;2022-12-31T01:19:15;14.52;;;6.65;;
67554;SDS011;54385;53.516;49.456;2022-12-31T01:21:44;14.38;;;5.90;;
67554;SDS011;54385;53.516;49.456;2022-12-31T01:24:11;9.43;;;4.15;;
67554;SDS011;54385;53.516;49.456;2022-12-31T01:26:38;13.27;;;5.95;;
67554;SDS011;54385;53.516;49.456;2022-12-31T01:29:05;10.77;;;5.70;;
67554;SDS011;54385;53.516;49.456;2022-12-31T01:31:33;11.77;;;6.47;;
67554;SDS011;54385;53.516;49.456;2022-12-31T01:34:00;11.45;;;5.43;;
67554;SDS011;54385;53.516;49.456;2022-12-31T01:36:37;10.80;;;6.03;;
67554;SDS011;54385;53.516;49.456;2022-12-31T01:41:32;11.07;;;5.93;;
67554;SDS011;54385;53.516;49.456;2022-12-31T01:46:40;11.10;;;5.38;;
67554;SDS011;54385;53.516;49.456;2022-12-31T01:51:54;11.48;;;6.10;;
67554;SDS011;54385;53.516;49.456;2022-12-31T01:56:54;10.05;;;5.72;;
67554;SDS011;54385;53.516;49.456;2022-12-31T01:59:24;10.10;;;5.78;;
67554;SDS011;54385;53.516;49.456;2022-12-31T02:01:53;12.13;;;5.80;;
67554;SDS011;54385;53.516;49.456;2022-12-31T02:04:20;12.93;;;6.65;;
67554;SDS011;54385;53.516;49.456;2022-12-31T02:09:23;13.23;;;6.05;;
67554;SDS011;54385;53.516;49.456;2022-12-31T02:11:53;11.93;;;6.45;;
67554;SDS011;54385;53.516;49.456;2022-12-31T02:14:21;12.18;;;6.50;;
67554;SDS011;54385;53.516;49.456;2022-12-31T02:30:49;13.25;;;6.78;;
67554;SDS011;54385;53.516;49.456;2022-12-31T02:33:21;13.75;;;6.97;;
67554;SDS011;54385;53.516;49.456;2022-12-31T02:35:54;12.45;;;6.68;;
67554;SDS011;54385;53.516;49.456;2022-12-31T02:38:34;11.75;;;6.32;;
67554;SDS011;54385;53.516;49.456;2022-12-31T02:41:05;12.88;;;6.15;;
67554;SDS011;54385;53.516;49.456;2022-12-31T02:52:05;14.25;;;6.70;;
67554;SDS011;54385;53.516;49.456;2022-12-31T02:57:26;16.17;;;6.95;;
67554;SDS011;54385;53.516;49.456;2022-12-31T03:00:03;12.52;;;6.07;;
67554;SDS011;54385;53.516;49.456;2022-12-31T03:02:51;11.75;;;6.30;;
67554;SDS011;54385;53.516;49.456;2022-12-31T03:05:24;13.10;;;6.18;;
67554;SDS011;54385;53.516;49.456;2022-12-31T03:07:52;13.48;;;7.35;;
67554;SDS011;54385;53.516;49.456;2022-12-31T03:10:19;11.23;;;5.85;;
67554;SDS011;54385;53.516;49.456;2022-12-31T03:12:57;8.60;;;4.10;;
67554;SDS011;54385;53.516;49.456;2022-12-31T03:15:28;16.67;;;6.18;;
67554;SDS011;54385;53.516;49.456;2022-12-31T03:20:46;14.32;;;7.32;;
67554;SDS011;54385;53.516;49.456;2022-12-31T03:23:36;13.85;;;6.90;;
67554;SDS011;54385;53.516;49.456;2022-12-31T03:26:05;11.98;;;6.30;;
67554;SDS011;54385;53.516;49.456;2022-12-31T03:28:38;16.15;;;6.95;;
67554;SDS011;54385;53.516;49.456;2022-12-31T03:31:06;13.20;;;7.18;;
67554;SDS011;54385;53.516;49.456;2022-12-31T03:33:34;10.98;;;6.35;;
67554;SDS011;54385;53.516;49.456;2022-12-31T03:36:05;14.32;;;7.78;;
67554;SDS011;54385;53.516;49.456;2022-12-31T03:38:37;14.35;;;7.45;;
67554;SDS011;54385;53.516;49.456;2022-12-31T03:43:34;15.35;;;7.35;;
67554;SDS011;54385;53.516;49.456;2022-12-31T03:46:00;17.38;;;8.32;;
67554;SDS011;54385;53.516;49.456;2022-12-31T03:48:27;16.13;;;7.85;;
67554;SDS011;54385;53.516;49.456;2022-12-31T03:50:56;21.45;;;9.15;;
67554;SDS011;54385;53.516;49.456;2022-12-31T03:53:23;10.68;;;5.88;;
67554;SDS011;54385;53.516;49.456;2022-12-31T03:55:50;23.27;;;10.70;;
67554;SDS011;54385;53.516;49.456;2022-12-31T03:58:17;22.00;;;9.88;;
67554;SDS011;54385;53.516;49.456;2022-12-31T04:00:47;16.20;;;7.05;;
67554;SDS011;54385;53.516;49.456;2022-12-31T04:03:24;14.05;;;6.50;;
67554;SDS011;54385;53.516;49.456;2022-12-31T04:05:51;17.27;;;8.55;;
67554;SDS011;54385;53.516;49.456;2022-12-31T04:08:18;17.77;;;9.02;;
67554;SDS011;54385;53.516;49.456;2022-12-31T04:10:55;13.07;;;7.03;;
67554;SDS011;54385;53.516;49.456;2022-12-31T04:13:21;12.85;;;7.43;;
67554;SDS011;54385;53.516;49.456;2022-12-31T04:15:58;11.18;;;6.75;;
67554;SDS011;54385;53.516;49.456;2022-12-31T04:18:24;14.23;;;7.00;;
67554;SDS011;54385;53.516;49.456;2022-12-31T04:20:51;13.68;;;7.13;;
67554;SDS011;54385;53.516;49.456;2022-12-31T04:23:17;13.73;;;7.60;;
67554;SDS011;54385;53.516;49.456;2022-12-31T04:25:44;12.88;;;6.25;;
67554;SDS011;54385;53.516;49.456;2022-12-31T04:28:10;11.68;;;6.30;;
67554;SDS011;54385;53.516;49.456;2022-12-31T04:30:37;10.65;;;5.90;;
67554;SDS011;54385;53.516;49.456;2022-12-31T04:33:07;14.07;;;7.05;;
67554;SDS011;54385;53.516;49.456;2022-12-31T04:38:00;12.23;;;6.55;;
67554;SDS011;54385;53.516;49.456;2022-12-31T04:40:27;16.83;;;7.65;;
67554;SDS011;54385;53.516;49.456;2022-12-31T04:42:53;12.07;;;6.90;;
67554;SDS011;54385;53.516;49.456;2022-12-31T04:45:20;15.05;;;7.72;;
67554;SDS011;54385;53.516;49.456;2022-12-31T04:47:47;13.40;;;7.70;;
67554;SDS011;54385;53.516;49.456;2022-12-31T04:50:13;16.77;;;8.65;;
67554;SDS011;54385;53.516;49.456;2022-12-31T04:52:40;12.48;;;6.65;;
67554;SDS011;54385;53.516;49.456;2022-12-31T04:55:16;16.40;;;7.32;;
67554;SDS011;54385;53.516;49.456;2022-12-31T04:57:44;13.20;;;6.43;;
67554;SDS011;54385;53.516;49.456;2022-12-31T05:00:11;11.88;;;6.05;;
67554;SDS011;54385;53.516;49.456;2022-12-31T05:02:38;10.30;;;6.25;;
67554;SDS011;54385;53.516;49.456;2022-12-31T05:05:04;11.27;;;6.80;;
67554;SDS011;54385;53.516;49.456;2022-12-31T05:07:33;17.52;;;8.20;;
67554;SDS011;54385;53.516;49.456;2022-12-31T05:09:59;12.05;;;6.95;;
67554;SDS011;54385;53.516;49.456;2022-12-31T05:12:25;11.57;;;6.47;;
67554;SDS011;54385;53.516;49.456;2022-12-31T05:14:52;10.80;;;5.57;;
67554;SDS011;54385;53.516;49.456;2022-12-31T05:17:18;12.63;;;7.35;;
67554;SDS011;54385;53.516;49.456;2022-12-31T05:19:47;12.88;;;7.18;;
67554;SDS011;54385;53.516;49.456;2022-12-31T05:22:14;12.98;;;6.85;;
67554;SDS011;54385;53.516;49.456;2022-12-31T05:24:58;12.63;;;6.38;;
67554;SDS011;54385;53.516;49.456;2022-12-31T05:27:25;12.35;;;7.18;;
67554;SDS011;54385;53.516;49.456;2022-12-31T05:29:55;14.68;;;7.43;;
67554;SDS011;54385;53.516;49.456;2022-12-31T05:32:24;12.52;;;7.38;;
67554;SDS011;54385;53.516;49.456;2022-12-31T05:34:51;14.90;;;7.55;;
67554;SDS011;54385;53.516;49.456;2022-12-31T05:37:18;14.52;;;6.80;;
67554;SDS011;54385;53.516;49.456;2022-12-31T05:39:46;12.95;;;6.72;;
67554;SDS011;54385;53.516;49.456;2022-12-31T05:42:12;14.32;;;7.10;;
67554;SDS011;54385;53.516;49.456;2022-12-31T05:44:39;11.23;;;6.32;;
67554;SDS011;54385;53.516;49.456;2022-12-31T05:47:10;11.68;;;5.78;;
67554;SDS011;54385;53.516;49.456;2022-12-31T05:49:36;10.90;;;6.10;;
67554;SDS011;54385;53.516;49.456;2022-12-31T05:52:02;11.95;;;6.28;;
67554;SDS011;54385;53.516;49.456;2022-12-31T05:54:33;13.52;;;6.55;;
67554;SDS011;54385;53.516;49.456;2022-12-31T05:56:59;12.07;;;7.00;;
67554;SDS011;54385;53.516;49.456;2022-12-31T05:59:36;11.85;;;6.82;;
67554;SDS011;54385;53.516;49.456;2022-12-31T06:02:03;10.98;;;6.50;;
67554;SDS011;54385;53.516;49.456;2022-12-31T06:04:39;11.00;;;5.70;;
67554;SDS011;54385;53.516;49.456;2022-12-31T06:07:06;10.98;;;6.10;;
67554;SDS011;54385;53.516;49.456;2022-12-31T06:12:00;10.63;;;5.63;;
67554;SDS011;54385;53.516;49.456;2022-12-31T06:14:26;12.15;;;5.53;;
67554;SDS011;54385;53.516;49.456;2022-12-31T06:16:52;9.90;;;5.30;;
67554;SDS011;54385;53.516;49.456;2022-12-31T06:19:19;8.70;;;5.72;;
67554;SDS011;54385;53.516;49.456;2022-12-31T06:21:48;12.77;;;5.95;;
67554;SDS011;54385;53.516;49.456;2022-12-31T06:24:14;9.65;;;5.43;;
67554;SDS011;54385;53.516;49.456;2022-12-31T06:26:51;11.20;;;5.90;;
67554;SDS011;54385;53.516;49.456;2022-12-31T06:29:17;7.05;;;4.25;;
67554;SDS011;54385;53.516;49.456;2022-12-31T06:31:54;9.35;;;4.95;;
67554;SDS011;54385;53.516;49.456;2022-12-31T06:34:30;9.57;;;5.00;;
67554;SDS011;54385;53.516;49.456;2022-12-31T06:36:58;8.73;;;4.30;;
67554;SDS011;54385;53.516;49.456;2022-12-31T06:39:25;7.57;;;4.30;;
67554;SDS011;54385;53.516;49.456;2022-12-31T06:41:51;10.57;;;5.47;;
67554;SDS011;54385;53.516;49.456;2022-12-31T06:44:18;8.13;;;4.68;;
67554;SDS011;54385;53.516;49.456;2022-12-31T06:46:47;11.65;;;5.05;;
67554;SDS011;54385;53.516;49.456;2022-12-31T06:49:18;8.38;;;4.68;;
67554;SDS011;54385;53.516;49.456;2022-12-31T06:51:44;10.25;;;4.90;;
67554;SDS011;54385;53.516;49.456;2022-12-31T06:54:12;7.72;;;4.45;;
67554;SDS011;54385;53.516;49.456;2022-12-31T06:56:39;8.98;;;5.10;;
67554;SDS011;54385;53.516;49.456;2022-12-31T06:59:08;8.50;;;4.95;;
67554;SDS011;54385;53.516;49.456;2022-12-31T07:05:11;8.25;;;4.65;;
67554;SDS011;54385;53.516;49.456;2022-12-31T07:10:40;7.50;;;4.30;;
67554;SDS011;54385;53.516;49.456;2022-12-31T07:19:24;8.18;;;4.43;;
67554;SDS011;54385;53.516;49.456;2022-12-31T07:22:06;9.93;;;5.45;;
67554;SDS011;54385;53.516;49.456;2022-12-31T07:24:38;9.57;;;5.20;;
67554;SDS011;54385;53.516;49.456;2022-12-31T07:33:05;10.63;;;5.15;;
67554;SDS011;54385;53.516;49.456;2022-12-31T07:39:00;7.15;;;3.88;;
67554;SDS011;54385;53.516;49.456;2022-12-31T07:49:47;8.88;;;3.97;;
67554;SDS011;54385;53.516;49.456;2022-12-31T07:52:14;7.50;;;4.43;;
67554;SDS011;54385;53.516;49.456;2022-12-31T07:54:41;9.70;;;4.72;;
67554;SDS011;54385;53.516;49.456;2022-12-31T07:57:12;7.57;;;4.47;;
67554;SDS011;54385;53.516;49.456;2022-12-31T08:05:05;9.13;;;4.82;;
67554;SDS011;54385;53.516;49.456;2022-12-31T08:07:57;9.43;;;4.95;;
67554;SDS011;54385;53.516;49.456;2022-12-31T08:10:56;10.52;;;5.03;;
67554;SDS011;54385;53.516;49.456;2022-12-31T08:13:39;8.90;;;4.63;;
67554;SDS011;54385;53.516;49.456;2022-12-31T08:16:10;8.23;;;4.15;;
67554;SDS011;54385;53.516;49.456;2022-12-31T08:18:37;10.18;;;6.07;;
67554;SDS011;54385;53.516;49.456;2022-12-31T08:21:23;7.30;;;4.53;;
67554;SDS011;54385;53.516;49.456;2022-12-31T08:26:30;8.70;;;4.38;;
67554;SDS011;54385;53.516;49.456;2022-12-31T08:29:17;8.63;;;4.30;;
67554;SDS011;54385;53.516;49.456;2022-12-31T08:32:20;6.50;;;4.07;;
67554;SDS011;54385;53.516;49.456;2022-12-31T08:34:57;8.48;;;4.50;;
67554;SDS011;54385;53.516;49.456;2022-12-31T08:37:47;7.47;;;4.47;;
67554;SDS011;54385;53.516;49.456;2022-12-31T08:45:48;7.30;;;4.50;;
67554;SDS011;54385;53.516;49.456;2022-12-31T08:48:41;9.60;;;4.40;;
67554;SDS011;54385;53.516;49.456;2022-12-31T08:51:13;9.63;;;5.25;;
67554;SDS011;54385;53.516;49.456;2022-12-31T08:53:44;7.20;;;3.95;;
67554;SDS011;54385;53.516;49.456;2022-12-31T08:59:07;7.13;;;4.43;;
67554;SDS011;54385;53.516;49.456;2022-12-31T09:04:45;7.60;;;3.20;;
67554;SDS011;54385;53.516;49.456;2022-12-31T09:07:40;7.05;;;4.38;;
67554;SDS011;54385;53.516;49.456;2022-12-31T09:10:31;6.90;;;4.32;;
67554;SDS011;54385;53.516;49.456;2022-12-31T09:13:13;6.30;;;3.72;;
67554;SDS011;54385;53.516;49.456;2022-12-31T09:15:58;7.53;;;3.97;;
67554;SDS011;54385;53.516;49.456;2022-12-31T09:18:44;7.07;;;4.13;;
67554;SDS011;54385;53.516;49.456;2022-12-31T09:21:21;8.63;;;5.43;;
67554;SDS011;54385;53.516;49.456;2022-12-31T09:23:48;10.65;;;6.32;;
67554;SDS011;54385;53.516;49.456;2022-12-31T09:34:53;6.40;;;4.28;;
67554;SDS011;54385;53.516;49.456;2022-12-31T09:40:28;7.30;;;3.88;;
67554;SDS011;54385;53.516;49.456;2022-12-31T09:46:13;5.88;;;3.33;;
67554;SDS011;54385;53.516;49.456;2022-12-31T09:51:31;8.13;;;4.13;;
67554;SDS011;54385;53.516;49.456;2022-12-31T09:57:13;6.22;;;3.67;;
67554;SDS011;54385;53.516;49.456;2022-12-31T09:59:56;6.88;;;3.67;;
67554;SDS011;54385;53.516;49.456;2022-12-31T10:08:37;5.75;;;3.83;;
67554;SDS011;54385;53.516;49.456;2022-12-31T10:11:26;8.38;;;4.28;;
67554;SDS011;54385;53.516;49.456;2022-12-31T10:20:56;7.32;;;4.00;;
67554;SDS011;54385;53.516;49.456;2022-12-31T10:26:39;6.70;;;3.28;;
67554;SDS011;54385;53.516;49.456;2022-12-31T10:37:27;4.55;;;2.78;;
67554;SDS011;54385;53.516;49.456;2022-12-31T11:02:55;5.10;;;3.50;;
67554;SDS011;54385;53.516;49.456;2022-12-31T11:11:34;6.22;;;3.65;;
67554;SDS011;54385;53.516;49.456;2022-12-31T11:14:33;5.07;;;3.67;;
67554;SDS011;54385;53.516;49.456;2022-12-31T11:25:46;5.90;;;3.65;;
67554;SDS011;54385;53.516;49.456;2022-12-31T11:28:48;6.25;;;3.83;;
67554;SDS011;54385;53.516;49.456;2022-12-31T11:43:15;8.25;;;4.03;;
67554;SDS011;54385;53.516;49.456;2022-12-31T11:51:42;7.47;;;4.45;;
67554;SDS011;54385;53.516;49.456;2022-12-31T11:57:33;6.80;;;3.30;;
67554;SDS011;54385;53.516;49.456;2022-12-31T12:02:50;6.07;;;3.80;;
67554;SDS011;54385;53.516;49.456;2022-12-31T12:05:28;5.40;;;3.67;;
67554;SDS011;54385;53.516;49.456;2022-12-31T12:08:01;6.47;;;3.80;;
67554;SDS011;54385;53.516;49.456;2022-12-31T12:10:43;6.32;;;3.65;;
67554;SDS011;54385;53.516;49.456;2022-12-31T12:15:54;7.05;;;3.80;;
67554;SDS011;54385;53.516;49.456;2022-12-31T12:18:27;7.85;;;4.18;;
67554;SDS011;54385;53.516;49.456;2022-12-31T12:21:18;6.55;;;4.18;;
67554;SDS011;54385;53.516;49.456;2022-12-31T12:23:58;6.65;;;3.72;;
67554;SDS011;54385;53.516;49.456;2022-12-31T12:26:37;7.32;;;3.95;;
67554;SDS011;54385;53.516;49.456;2022-12-31T12:29:17;5.88;;;3.58;;
67554;SDS011;54385;53.516;49.456;2022-12-31T12:31:57;8.13;;;3.88;;
67554;SDS011;54385;53.516;49.456;2022-12-31T12:34:28;5.47;;;3.65;;
67554;SDS011;54385;53.516;49.456;2022-12-31T12:36:55;5.22;;;3.63;;
67554;SDS011;54385;53.516;49.456;2022-12-31T12:39:24;7.30;;;3.90;;
67554;SDS011;54385;53.516;49.456;2022-12-31T12:42:03;7.82;;;3.72;;
67554;SDS011;54385;53.516;49.456;2022-12-31T12:44:35;6.45;;;3.80;;
67554;SDS011;54385;53.516;49.456;2022-12-31T12:47:07;5.50;;;3.63;;
67554;SDS011;54385;53.516;49.456;2022-12-31T12:49:41;4.95;;;3.30;;
67554;SDS011;54385;53.516;49.456;2022-12-31T12:55:25;5.90;;;3.33;;
67554;SDS011;54385;53.516;49.456;2022-12-31T13:09:02;4.95;;;3.00;;
67554;SDS011;54385;53.516;49.456;2022-12-31T13:11:33;4.97;;;2.95;;
67554;SDS011;54385;53.516;49.456;2022-12-31T13:14:38;4.00;;;2.80;;
67554;SDS011;54385;53.516;49.456;2022-12-31T13:17:37;4.65;;;2.88;;
67554;SDS011;54385;53.516;49.456;2022-12-31T13:20:43;4.38;;;2.78;;
67554;SDS011;54385;53.516;49.456;2022-12-31T13:23:22;5.45;;;2.60;;
67554;SDS011;54385;53.516;49.456;2022-12-31T13:28:58;4.75;;;2.72;;
67554;SDS011;54385;53.516;49.456;2022-12-31T13:31:31;5.20;;;3.08;;
67554;SDS011;54385;53.516;49.456;2022-12-31T13:34:15;4.25;;;3.05;;
67554;SDS011;54385;53.516;49.456;2022-12-31T13:36:49;5.47;;;3.13;;
67554;SDS011;54385;53.516;49.456;2022-12-31T13:39:24;6.43;;;3.33;;
67554;SDS011;54385;53.516;49.456;2022-12-31T13:42:08;3.97;;;2.85;;
67554;SDS011;54385;53.516;49.456;2022-12-31T13:44:53;4.78;;;2.80;;
67554;SDS011;54385;53.516;49.456;2022-12-31T13:47:41;5.07;;;2.90;;
67554;SDS011;54385;53.516;49.456;2022-12-31T13:50:25;4.57;;;3.10;;
67554;SDS011;54385;53.516;49.456;2022-12-31T13:56:10;6.00;;;3.33;;
67554;SDS011;54385;53.516;49.456;2022-12-31T13:58:42;6.32;;;3.28;;
67554;SDS011;54385;53.516;49.456;2022-12-31T14:01:27;5.07;;;3.45;;
67554;SDS011;54385;53.516;49.456;2022-12-31T14:09:37;6.25;;;3.63;;
67554;SDS011;54385;53.516;49.456;2022-12-31T14:12:10;5.80;;;3.22;;
67554;SDS011;54385;53.516;49.456;2022-12-31T14:15:32;6.05;;;3.60;;
67554;SDS011;54385;53.516;49.456;2022-12-31T14:18:11;4.90;;;3.20;;
67554;SDS011;54385;53.516;49.456;2022-12-31T14:23:49;5.53;;;3.22;;
67554;SDS011;54385;53.516;49.456;2022-12-31T14:26:26;5.90;;;3.42;;
67554;SDS011;54385;53.516;49.456;2022-12-31T14:29:03;6.93;;;3.75;;
67554;SDS011;54385;53.516;49.456;2022-12-31T14:31:50;5.70;;;3.75;;
67554;SDS011;54385;53.516;49.456;2022-12-31T14:34:44;7.78;;;3.58;;
67554;SDS011;54385;53.516;49.456;2022-12-31T14:48:54;5.45;;;3.05;;
67554;SDS011;54385;53.516;49.456;2022-12-31T14:51:33;6.00;;;4.07;;
67554;SDS011;54385;53.516;49.456;2022-12-31T14:54:01;6.70;;;4.10;;
67554;SDS011;54385;53.516;49.456;2022-12-31T14:56:49;6.47;;;4.22;;
67554;SDS011;54385;53.516;49.456;2022-12-31T14:59:27;6.22;;;3.45;;
67554;SDS011;54385;53.516;49.456;2022-12-31T15:01:57;5.80;;;3.08;;
67554;SDS011;54385;53.516;49.456;2022-12-31T15:04:30;5.55;;;3.40;;
67554;SDS011;54385;53.516;49.456;2022-12-31T15:23:54;6.85;;;4.47;;
67554;SDS011;54385;53.516;49.456;2022-12-31T15:26:26;6.20;;;4.10;;
67554;SDS011;54385;53.516;49.456;2022-12-31T15:29:00;6.75;;;3.97;;
67554;SDS011;54385;53.516;49.456;2022-12-31T15:31:32;9.20;;;4.53;;
67554;SDS011;54385;53.516;49.456;2022-12-31T15:34:18;7.90;;;4.60;;
67554;SDS011;54385;53.516;49.456;2022-12-31T15:36:55;6.53;;;3.85;;
67554;SDS011;54385;53.516;49.456;2022-12-31T15:41:56;7.07;;;4.57;;
67554;SDS011;54385;53.516;49.456;2022-12-31T15:50:05;6.50;;;4.05;;
67554;SDS011;54385;53.516;49.456;2022-12-31T15:52:41;7.47;;;3.97;;
67554;SDS011;54385;53.516;49.456;2022-12-31T15:55:17;5.20;;;3.78;;
67554;SDS011;54385;53.516;49.456;2022-12-31T15:57:54;5.50;;;4.00;;
67554;SDS011;54385;53.516;49.456;2022-12-31T16:00:24;7.28;;;4.65;;
67554;SDS011;54385;53.516;49.456;2022-12-31T16:03:01;8.45;;;4.63;;
67554;SDS011;54385;53.516;49.456;2022-12-31T16:07:58;5.05;;;3.17;;
67554;SDS011;54385;53.516;49.456;2022-12-31T16:10:27;7.53;;;4.15;;
67554;SDS011;54385;53.516;49.456;2022-12-31T16:12:59;7.03;;;3.50;;
67554;SDS011;54385;53.516;49.456;2022-12-31T16:15:27;8.55;;;4.00;;
67554;SDS011;54385;53.516;49.456;2022-12-31T16:18:05;5.43;;;3.38;;
67554;SDS011;54385;53.516;49.456;2022-12-31T16:20:40;9.15;;;3.75;;
67554;SDS011;54385;53.516;49.456;2022-12-31T16:23:26;7.05;;;3.63;;
67554;SDS011;54385;53.516;49.456;2022-12-31T16:25:59;5.95;;;3.28;;
67554;SDS011;54385;53.516;49.456;2022-12-31T16:28:31;6.90;;;3.70;;
67554;SDS011;54385;53.516;49.456;2022-12-31T16:31:00;6.15;;;3.60;;
67554;SDS011;54385;53.516;49.456;2022-12-31T16:33:33;5.53;;;3.03;;
67554;SDS011;54385;53.516;49.456;2022-12-31T16:38:30;4.47;;;2.88;;
67554;SDS011;54385;53.516;49.456;2022-12-31T16:45:57;6.03;;;3.65;;
67554;SDS011;54385;53.516;49.456;2022-12-31T16:48:43;7.15;;;3.75;;
67554;SDS011;54385;53.516;49.456;2022-12-31T16:51:16;6.80;;;3.60;;
67554;SDS011;54385;53.516;49.456;2022-12-31T16:53:45;7.28;;;3.75;;
67554;SDS011;54385;53.516;49.456;2022-12-31T16:56:18;8.32;;;3.92;;
67554;SDS011;54385;53.516;49.456;2022-12-31T16:59:03;4.43;;;2.80;;
67554;SDS011;54385;53.516;49.456;2022-12-31T17:01:42;6.35;;;3.42;;
67554;SDS011;54385;53.516;49.456;2022-12-31T17:04:09;5.25;;;2.90;;
67554;SDS011;54385;53.516;49.456;2022-12-31T17:06:40;5.32;;;2.90;;
67554;SDS011;54385;53.516;49.456;2022-12-31T17:09:10;5.53;;;2.70;;
67554;SDS011;54385;53.516;49.456;2022-12-31T17:14:25;4.82;;;2.92;;
67554;SDS011;54385;53.516;49.456;2022-12-31T17:17:04;3.83;;;2.47;;
67554;SDS011;54385;53.516;49.456;2022-12-31T17:19:43;5.03;;;2.70;;
67554;SDS011;54385;53.516;49.456;2022-12-31T17:25:01;5.35;;;2.40;;
67554;SDS011;54385;53.516;49.456;2022-12-31T17:27:31;5.05;;;2.78;;
67554;SDS011;54385;53.516;49.456;2022-12-31T17:30:18;5.47;;;2.78;;
67554;SDS011;54385;53.516;49.456;2022-12-31T17:32:46;3.97;;;2.72;;
67554;SDS011;54385;53.516;49.456;2022-12-31T17:35:48;4.45;;;3.20;;
67554;SDS011;54385;53.516;49.456;2022-12-31T17:43:33;5.63;;;3.72;;
67554;SDS011;54385;53.516;49.456;2022-12-31T17:46:08;5.82;;;3.10;;
67554;SDS011;54385;53.516;49.456;2022-12-31T17:48:37;3.72;;;2.83;;
67554;SDS011;54385;53.516;49.456;2022-12-31T17:51:07;4.15;;;2.72;;
67554;SDS011;54385;53.516;49.456;2022-12-31T17:53:35;4.60;;;2.70;;
67554;SDS011;54385;53.516;49.456;2022-12-31T17:58:36;6.20;;;3.30;;
67554;SDS011;54385;53.516;49.456;2022-12-31T18:01:10;5.13;;;2.92;;
67554;SDS011;54385;53.516;49.456;2022-12-31T18:03:41;4.63;;;2.85;;
67554;SDS011;54385;53.516;49.456;2022-12-31T18:06:18;6.22;;;3.58;;
67554;SDS011;54385;53.516;49.456;2022-12-31T18:08:45;4.50;;;2.92;;
67554;SDS011;54385;53.516;49.456;2022-12-31T18:11:21;5.93;;;3.45;;
67554;SDS011;54385;53.516;49.456;2022-12-31T18:13:49;10.32;;;5.07;;
67554;SDS011;54385;53.516;49.456;2022-12-31T18:16:26;13.02;;;6.32;;
67554;SDS011;54385;53.516;49.456;2022-12-31T18:18:53;14.55;;;7.22;;
67554;SDS011;54385;53.516;49.456;2022-12-31T18:21:24;15.10;;;7.80;;
67554;SDS011;54385;53.516;49.456;2022-12-31T18:23:57;8.63;;;4.00;;
67554;SDS011;54385;53.516;49.456;2022-12-31T18:26:24;6.10;;;3.15;;
67554;SDS011;54385;53.516;49.456;2022-12-31T18:28:51;4.57;;;2.80;;
67554;SDS011;54385;53.516;49.456;2022-12-31T18:31:22;5.63;;;2.85;;
67554;SDS011;54385;53.516;49.456;2022-12-31T18:33:52;3.90;;;2.63;;
67554;SDS011;54385;53.516;49.456;2022-12-31T18:36:20;5.55;;;3.60;;
67554;SDS011;54385;53.516;49.456;2022-12-31T18:38:47;5.93;;;3.67;;
67554;SDS011;54385;53.516;49.456;2022-12-31T18:41:23;5.82;;;3.53;;
67554;SDS011;54385;53.516;49.456;2022-12-31T18:43:54;4.15;;;2.95;;
67554;SDS011;54385;53.516;49.456;2022-12-31T18:46:21;7.70;;;4.00;;
67554;SDS011;54385;53.516;49.456;2022-12-31T18:48:49;5.93;;;3.60;;
67554;SDS011;54385;53.516;49.456;2022-12-31T18:53:49;4.65;;;2.83;;
67554;SDS011;54385;53.516;49.456;2022-12-31T18:58:55;3.65;;;2.60;;
67554;SDS011;54385;53.516;49.456;2022-12-31T19:01:35;3.60;;;2.40;;
67554;SDS011;54385;53.516;49.456;2022-12-31T19:04:10;3.70;;;2.63;;
67554;SDS011;54385;53.516;49.456;2022-12-31T19:06:38;4.03;;;2.80;;
67554;SDS011;54385;53.516;49.456;2022-12-31T19:09:04;3.83;;;2.53;;
67554;SDS011;54385;53.516;49.456;2022-12-31T19:14:26;4.60;;;2.42;;
67554;SDS011;54385;53.516;49.456;2022-12-31T19:16:56;4.88;;;2.22;;
67554;SDS011;54385;53.516;49.456;2022-12-31T19:19:25;4.97;;;2.60;;
67554;SDS011;54385;53.516;49.456;2022-12-31T19:21:51;4.03;;;2.50;;
67554;SDS011;54385;53.516;49.456;2022-12-31T19:24:19;6.20;;;2.78;;
67554;SDS011;54385;53.516;49.456;2022-12-31T19:26:48;4.35;;;2.63;;
67554;SDS011;54385;53.516;49.456;2022-12-31T19:29:19;4.00;;;2.10;;
67554;SDS011;54385;53.516;49.456;2022-12-31T19:31:48;3.00;;;2.20;;
67554;SDS011;54385;53.516;49.456;2022-12-31T19:34:15;4.18;;;2.45;;
67554;SDS011;54385;53.516;49.456;2022-12-31T19:36:41;3.90;;;2.47;;
67554;SDS011;54385;53.516;49.456;2022-12-31T19:39:15;4.43;;;2.50;;
67554;SDS011;54385;53.516;49.456;2022-12-31T19:41:44;4.50;;;2.60;;
67554;SDS011;54385;53.516;49.456;2022-12-31T19:44:14;3.17;;;2.03;;
67554;SDS011;54385;53.516;49.456;2022-12-31T19:46:53;4.20;;;2.10;;
67554;SDS011;54385;53.516;49.456;2022-12-31T19:49:19;3.17;;;2.25;;
67554;SDS011;54385;53.516;49.456;2022-12-31T19:51:46;3.92;;;2.10;;
67554;SDS011;54385;53.516;49.456;2022-12-31T19:54:14;4.28;;;2.30;;
67554;SDS011;54385;53.516;49.456;2022-12-31T19:56:41;3.15;;;2.25;;
67554;SDS011;54385;53.516;49.456;2022-12-31T19:59:08;3.63;;;2.22;;
67554;SDS011;54385;53.516;49.456;2022-12-31T20:01:35;3.03;;;2.13;;
67554;SDS011;54385;53.516;49.456;2022-12-31T20:04:05;4.50;;;2.75;;